Santa Teresa, Brazil
Current Conditions -  °F | °C
As of 7:00 AM on Sunday 26 Oct 2014 (Local Time) from SBVT Reporting Station
Broken Clouds Broken Clouds  
Wind Chill: 75°   Ceiling: 8000
Heat Index: 75°   Visibility: 6mi
Dew Point: 64°   Wind: 8mph
Humidity: 69%   Direction: 10°N
Pressure: 29.94"   Gusts: NA
Location:  19.94°S, 40.59°W
Report Text: SBVT 260900Z 01007KT 9999 SCT030 BKN080 24/18 Q1014
Loading
Personal Weather Stations






























Interactive Weather Map
Tropical Storm Tracking
New forecast layout! Learn more

10-Day Weather Forecast

Advertisements
Track Severe Weather on mobile